Time;durP1;ratioP1;P1;durP2;ratioP2;P2;SDS_P1;SDS_P2;PMS_P1;PMS_P2;Temp;Humidity;BMP_temperature;BMP_pressure;BME280_temperature;BME280_humidity;BME280_pressure;Samples;Min_cycle;Max_cycle;Signal;HPM_P1;HPM_P2
2023/07/21 00:01:56;;;;;;;;;;;;;;;;;;4375361;32;68687;-58
2023/07/21 00:04:43;;;;;;;4.15;2.15;;;;;;;;;;4398891;32;70880;-58
2023/07/21 00:07:32;;;;;;;3.17;1.92;;;;;;;;;;4374915;32;70498;-59
2023/07/21 00:10:19;;;;;;;1.85;1.65;;;;;;;;;;4397251;32;68274;-59
2023/07/21 00:13:06;;;;;;;2.28;1.87;;;;;;;;;;4386038;32;68158;-59
2023/07/21 00:15:53;;;;;;;2.70;1.85;;;;;;;;;;4375579;32;70861;-59
2023/07/21 00:18:41;;;;;;;2.85;1.77;;;;;;;;;;4375225;32;66681;-59
2023/07/21 00:21:28;;;;;;;5.55;1.87;;;;;;;;;;4398145;32;67443;-58
2023/07/21 00:24:15;;;;;;;3.58;1.98;;;;;;;;;;4375293;32;61809;-60
2023/07/21 00:27:02;;;;;;;1.85;1.55;;;;;;;;;;4385741;32;70267;-59
2023/07/21 00:29:49;;;;;;;4.75;1.98;;;;;;;;;;4386137;32;69209;-58
2023/07/21 00:32:37;;;;;;;4.50;1.80;;;;;;;;;;4397956;32;67514;-58
2023/07/21 00:35:24;;;;;;;3.08;1.50;;;;;;;;;;4386571;32;59311;-59
2023/07/21 00:38:11;;;;;;;2.42;1.80;;;;;;;;;;4385508;32;68370;-59
2023/07/21 00:40:57;;;;;;;;;;;;;;;;;;4386665;32;69466;-58
2023/07/21 00:43:44;;;;;;;2.40;1.62;;;;;;;;;;4396837;32;66845;-58
2023/07/21 00:46:30;;;;;;;;;;;;;;;;;;4375190;32;72334;-59
2023/07/21 00:49:18;;;;;;;2.28;1.73;;;;;;;;;;4386250;32;66220;-58
2023/07/21 00:52:04;;;;;;;3.42;1.98;;;;;;;;;;4385422;32;68041;-59
2023/07/21 00:54:52;;;;;;;2.80;2.03;;;;;;;;;;4375488;32;60120;-58
2023/07/21 00:57:39;;;;;;;6.47;2.47;;;;;;;;;;4374167;32;71429;-59
2023/07/21 01:00:27;;;;;;;5.25;2.20;;;;;;;;;;4386138;32;66013;-58
2023/07/21 01:03:15;;;;;;;3.15;2.10;;;;;;;;;;4374816;32;68195;-58
2023/07/21 01:06:03;;;;;;;4.90;2.37;;;;;;;;;;4386099;32;60263;-58
2023/07/21 01:08:50;;;;;;;2.83;2.17;;;;;;;;;;4397756;32;70436;-59
2023/07/21 01:11:37;;;;;;;6.15;2.28;;;;;;;;;;4399099;32;69428;-58
2023/07/21 01:14:23;;;;;;;3.42;2.42;;;;;;;;;;4377469;32;67831;-59
2023/07/21 01:17:11;;;;;;;7.37;2.78;;;;;;;;;;4387763;32;72424;-59
2023/07/21 01:20:00;;;;;;;5.03;2.50;;;;;;;;;;4366530;32;70160;-58
2023/07/21 01:22:53;;;;;;;5.43;2.35;;;;;;;;;;4377163;32;68999;-58
2023/07/21 01:25:42;;;;;;;5.40;2.45;;;;;;;;;;4398807;32;66652;-58
2023/07/21 01:28:30;;;;;;;5.12;2.45;;;;;;;;;;4387886;32;72480;-58
2023/07/21 01:31:19;;;;;;;5.55;2.80;;;;;;;;;;4388128;32;64966;-59
2023/07/21 01:34:09;;;;;;;7.50;2.67;;;;;;;;;;4388475;32;66719;-59
2023/07/21 01:36:56;;;;;;;4.00;2.53;;;;;;;;;;4388630;32;60119;-59
2023/07/21 01:39:44;;;;;;;5.10;2.50;;;;;;;;;;4399843;32;70788;-59
2023/07/21 01:42:31;;;;;;;4.80;2.37;;;;;;;;;;4398593;32;68463;-59
2023/07/21 01:45:18;;;;;;;4.37;2.60;;;;;;;;;;4387821;32;66857;-59
2023/07/21 01:48:05;;;;;;;4.28;2.30;;;;;;;;;;4388429;32;59201;-58
2023/07/21 01:50:53;;;;;;;3.60;2.00;;;;;;;;;;4387833;32;70432;-59
2023/07/21 01:53:41;;;;;;;5.90;2.92;;;;;;;;;;4387972;32;69248;-58
2023/07/21 01:56:42;;;;;;;4.62;2.60;;;;;;;;;;4388131;32;67578;-59
2023/07/21 01:59:28;;;;;;;4.47;2.40;;;;;;;;;;4387824;32;70787;-58
2023/07/21 02:02:16;;;;;;;4.78;2.50;;;;;;;;;;4366224;32;65948;-59
2023/07/21 02:05:05;;;;;;;5.53;2.33;;;;;;;;;;4366083;32;68759;-58
2023/07/21 02:07:52;;;;;;;3.75;2.45;;;;;;;;;;4388200;32;59286;-59
2023/07/21 02:10:40;;;;;;;5.57;2.33;;;;;;;;;;4399355;32;70701;-58
2023/07/21 02:13:28;;;;;;;3.87;2.40;;;;;;;;;;4376697;32;67429;-58
2023/07/21 02:16:15;;;;;;;4.12;2.45;;;;;;;;;;4387846;32;67865;-58
2023/07/21 02:19:01;;;;;;;5.47;2.30;;;;;;;;;;4387045;32;60704;-58
2023/07/21 02:21:48;;;;;;;4.20;2.30;;;;;;;;;;4398357;32;69609;-57
2023/07/21 02:24:35;;;;;;;4.20;2.45;;;;;;;;;;4375969;32;69002;-59
2023/07/21 02:27:22;;;;;;;6.30;2.50;;;;;;;;;;4399338;32;66777;-59
2023/07/21 02:30:09;;;;;;;3.90;2.22;;;;;;;;;;4376925;32;71893;-59
2023/07/21 02:32:56;;;;;;;2.45;2.08;;;;;;;;;;4377174;32;64866;-59
2023/07/21 02:35:42;;;;;;;2.85;2.30;;;;;;;;;;4397972;32;69557;-59
2023/07/21 02:38:29;;;;;;;5.35;2.30;;;;;;;;;;4387529;32;67813;-58
2023/07/21 02:41:16;;;;;;;5.45;2.53;;;;;;;;;;4397991;32;70844;-59
2023/07/21 02:44:03;;;;;;;2.62;2.22;;;;;;;;;;4399094;32;64884;-59
2023/07/21 02:46:50;;;;;;;3.72;2.08;;;;;;;;;;4376709;32;68532;-58
2023/07/21 02:49:37;;;;;;;;;;;;;;;;;;4399932;32;60202;-59
2023/07/21 02:52:27;;;;;;;4.87;2.47;;;;;;;;;;4387419;32;70184;-58
2023/07/21 02:55:14;;;;;;;3.62;2.70;;;;;;;;;;4398007;32;68279;-58
2023/07/21 02:58:02;;;;;;;3.62;2.20;;;;;;;;;;4387236;32;66785;-59
2023/07/21 03:00:49;;;;;;;4.35;2.30;;;;;;;;;;4387909;32;60187;-58
2023/07/21 03:03:37;;;;;;;4.47;2.50;;;;;;;;;;4399247;32;70689;-58
2023/07/21 03:06:25;;;;;;;4.15;2.28;;;;;;;;;;4398945;32;69480;-59
2023/07/21 03:09:12;;;;;;;4.93;2.30;;;;;;;;;;4387250;32;67538;-58
2023/07/21 03:11:59;;;;;;;;;;;;;;;;;;4376564;32;71570;-58
2023/07/21 03:14:48;;;;;;;4.43;2.00;;;;;;;;;;4398016;32;66104;-58
2023/07/21 03:17:35;;;;;;;3.30;2.40;;;;;;;;;;4387489;32;67897;-59
2023/07/21 03:20:22;;;;;;;3.78;2.12;;;;;;;;;;4399152;32;60641;-58
2023/07/21 03:23:09;;;;;;;6.40;2.53;;;;;;;;;;4397344;32;70184;-59
2023/07/21 03:25:56;;;;;;;2.78;1.90;;;;;;;;;;4376464;32;65114;-59
2023/07/21 03:28:44;;;;;;;4.12;2.35;;;;;;;;;;4386970;32;67038;-59
2023/07/21 03:31:32;;;;;;;2.50;1.90;;;;;;;;;;4387191;32;59144;-59
2023/07/21 03:34:20;;;;;;;3.20;2.33;;;;;;;;;;4387528;32;70610;-59
2023/07/21 03:37:08;;;;;;;5.43;2.50;;;;;;;;;;4399544;32;68962;-58
2023/07/21 03:39:55;;;;;;;4.00;2.28;;;;;;;;;;4377925;32;68553;-58
2023/07/21 03:42:43;;;;;;;3.33;2.15;;;;;;;;;;4385951;32;72497;-59
2023/07/21 03:45:29;;;;;;;;;;;;;;;;;;4387339;32;65730;-58
2023/07/21 03:48:16;;;;;;;9.85;2.70;;;;;;;;;;4397333;32;69771;-58
2023/07/21 03:51:05;;;;;;;4.07;2.42;;;;;;;;;;4397264;32;67663;-57
2023/07/21 03:53:53;;;;;;;3.87;2.15;;;;;;;;;;4386499;32;71884;-58
2023/07/21 03:56:39;;;;;;;;;;;;;;;;;;4398579;32;65926;-60
2023/07/21 03:59:29;;;;;;;2.83;1.95;;;;;;;;;;4399481;32;68360;-58
2023/07/21 04:02:18;;;;;;;4.95;1.85;;;;;;;;;;4376650;32;59196;-59
2023/07/21 04:05:05;;;;;;;6.43;2.58;;;;;;;;;;4375137;32;71030;-59
2023/07/21 04:07:52;;;;;;;4.15;2.70;;;;;;;;;;4375156;32;68943;-59
2023/07/21 04:10:42;;;;;;;2.55;2.20;;;;;;;;;;4364779;32;67324;-60
2023/07/21 04:13:29;;;;;;;5.75;2.20;;;;;;;;;;4364665;32;60613;-58
2023/07/21 04:16:16;;;;;;;3.33;2.00;;;;;;;;;;4397005;32;68117;-59
2023/07/21 04:19:03;;;;;;;3.87;2.25;;;;;;;;;;4375734;32;69875;-58
2023/07/21 04:21:50;;;;;;;3.15;2.00;;;;;;;;;;4396854;32;66975;-59
2023/07/21 04:24:37;;;;;;;3.87;2.30;;;;;;;;;;4367582;32;71758;-58
2023/07/21 04:27:24;;;;;;;2.85;2.20;;;;;;;;;;4366663;32;66188;-59
2023/07/21 04:30:10;;;;;;;;;;;;;;;;;;4368088;32;67118;-59
2023/07/21 04:32:58;;;;;;;4.00;2.10;;;;;;;;;;4356374;32;59981;-59
2023/07/21 04:35:48;;;;;;;2.62;2.17;;;;;;;;;;4345192;32;70921;-59
2023/07/21 04:38:36;;;;;;;2.67;1.92;;;;;;;;;;4366482;32;65981;-58
2023/07/21 04:41:24;;;;;;;4.75;2.55;;;;;;;;;;4335002;32;68330;-58
2023/07/21 04:44:11;;;;;;;3.47;2.53;;;;;;;;;;4345993;32;60941;-59
2023/07/21 04:46:58;;;;;;;4.50;2.35;;;;;;;;;;4358185;32;70970;-58
2023/07/21 04:49:48;;;;;;;5.05;2.17;;;;;;;;;;4348190;32;68380;-59
2023/07/21 04:52:36;;;;;;;5.37;2.55;;;;;;;;;;4358881;32;66764;-59
2023/07/21 04:55:23;;;;;;;3.95;2.28;;;;;;;;;;4358929;32;72328;-58
2023/07/21 04:58:10;;;;;;;3.85;2.20;;;;;;;;;;4359112;32;65682;-59
2023/07/21 05:00:56;;;;;;;2.85;2.10;;;;;;;;;;4337668;32;68388;-59
2023/07/21 05:03:44;;;;;;;5.32;2.75;;;;;;;;;;4358783;32;67627;-59
2023/07/21 05:06:31;;;;;;;4.68;2.42;;;;;;;;;;4358185;32;71569;-59
2023/07/21 05:09:19;;;;;;;;;;;;;;;;;;4358862;32;66062;-58
2023/07/21 05:12:07;;;;;;;3.65;2.25;;;;;;;;;;4358556;32;67189;-58
2023/07/21 05:14:57;;;;;;;4.07;2.40;;;;;;;;;;4358418;32;61350;-59
2023/07/21 05:17:44;;;;;;;5.78;2.47;;;;;;;;;;4368604;32;70921;-58
2023/07/21 05:20:31;;;;;;;4.60;2.40;;;;;;;;;;4368512;32;69452;-58
2023/07/21 05:23:19;;;;;;;6.78;2.60;;;;;;;;;;4372634;32;67475;-59
2023/07/21 05:26:06;;;;;;;5.12;2.70;;;;;;;;;;4388319;32;70901;-58
2023/07/21 05:28:55;;;;;;;4.05;2.70;;;;;;;;;;4400085;32;69891;-58
2023/07/21 05:31:45;;;;;;;7.43;2.55;;;;;;;;;;4388644;32;68285;-59
2023/07/21 05:34:32;;;;;;;4.03;2.50;;;;;;;;;;4398929;32;67844;-60
2023/07/21 05:37:20;;;;;;;4.68;2.50;;;;;;;;;;4398171;32;70374;-58
2023/07/21 05:40:09;;;;;;;4.20;2.10;;;;;;;;;;4388219;32;65007;-59
2023/07/21 05:42:55;;;;;;;3.37;2.45;;;;;;;;;;4377305;32;68488;-58
2023/07/21 05:45:42;;;;;;;3.95;2.28;;;;;;;;;;4387708;32;60721;-59
2023/07/21 05:48:29;;;;;;;4.85;3.00;;;;;;;;;;4400056;32;70661;-59
2023/07/21 05:51:17;;;;;;;4.62;2.75;;;;;;;;;;4388124;32;68485;-58
2023/07/21 05:54:04;;;;;;;3.08;2.22;;;;;;;;;;4388140;32;68166;-59
2023/07/21 05:56:52;;;;;;;5.40;2.58;;;;;;;;;;4387030;32;60088;-59
2023/07/21 05:59:41;;;;;;;4.68;2.60;;;;;;;;;;4387179;32;71233;-59
2023/07/21 06:02:28;;;;;;;3.45;2.10;;;;;;;;;;4387410;32;69824;-59
2023/07/21 06:05:16;;;;;;;2.95;2.08;;;;;;;;;;4387897;32;66885;-59
2023/07/21 06:08:04;;;;;;;6.12;2.72;;;;;;;;;;4399723;32;70741;-60
2023/07/21 06:10:54;;;;;;;4.47;2.42;;;;;;;;;;4398829;32;66244;-59
2023/07/21 06:13:41;;;;;;;3.53;2.03;;;;;;;;;;4377433;32;68079;-59
2023/07/21 06:16:31;;;;;;;4.18;2.53;;;;;;;;;;4387982;32;67623;-58
2023/07/21 06:19:17;;;;;;;;;;;;;;;;;;4398750;32;71097;-58
2023/07/21 06:22:04;;;;;;;3.00;1.90;;;;;;;;;;4376474;32;66982;-58
2023/07/21 06:24:52;;;;;;;3.80;2.20;;;;;;;;;;4399354;32;67486;-58
2023/07/21 06:27:39;;;;;;;5.12;2.40;;;;;;;;;;4387394;32;60995;-59
2023/07/21 06:30:26;;;;;;;2.72;1.73;;;;;;;;;;4376449;32;71369;-59
2023/07/21 06:33:13;;;;;;;;;;;;;;;;;;4399609;32;68356;-59
2023/07/21 06:35:59;;;;;;;6.60;2.45;;;;;;;;;;4387725;32;67952;-59
2023/07/21 06:38:46;;;;;;;2.55;2.08;;;;;;;;;;4387765;32;70661;-58
2023/07/21 06:41:33;;;;;;;3.22;1.77;;;;;;;;;;4397847;32;71014;-59
2023/07/21 06:44:23;;;;;;;3.28;2.45;;;;;;;;;;4387891;32;69545;-59
2023/07/21 06:47:11;;;;;;;4.80;2.58;;;;;;;;;;4397886;32;66956;-59
2023/07/21 06:49:58;;;;;;;3.85;2.20;;;;;;;;;;4376513;32;70492;-59
2023/07/21 06:52:45;;;;;;;;;;;;;;;;;;4387581;32;65398;-58
2023/07/21 06:55:33;;;;;;;2.78;2.00;;;;;;;;;;4397526;32;68217;-59
2023/07/21 06:58:20;;;;;;;3.40;2.30;;;;;;;;;;4387520;32;59026;-59
2023/07/21 07:01:07;;;;;;;3.33;2.08;;;;;;;;;;4399129;32;70434;-59
2023/07/21 07:03:55;;;;;;;2.83;1.98;;;;;;;;;;4387137;32;68524;-59
2023/07/21 07:06:42;;;;;;;3.53;2.08;;;;;;;;;;4397360;32;66954;-58
2023/07/21 07:09:28;;;;;;;4.50;2.20;;;;;;;;;;4387084;32;59848;-58
2023/07/21 07:12:16;;;;;;;1.90;1.73;;;;;;;;;;4399202;32;70970;-59
2023/07/21 07:15:03;;;;;;;5.28;2.30;;;;;;;;;;4397988;32;68483;-59
2023/07/21 07:17:50;;;;;;;3.08;2.10;;;;;;;;;;4398037;32;66978;-59
2023/07/21 07:20:38;;;;;;;4.87;2.42;;;;;;;;;;4376195;32;71570;-58
2023/07/21 07:23:25;;;;;;;3.20;2.30;;;;;;;;;;4376168;32;66268;-58
2023/07/21 07:26:12;;;;;;;3.72;2.40;;;;;;;;;;4386711;32;68286;-59
2023/07/21 07:28:58;;;;;;;3.22;2.10;;;;;;;;;;4397507;32;60234;-58
2023/07/21 07:31:45;;;;;;;3.50;2.10;;;;;;;;;;4386516;32;71715;-58
2023/07/21 07:34:31;;;;;;;5.25;3.12;;;;;;;;;;4386429;32;64873;-58
2023/07/21 07:37:19;;;;;;;3.78;2.15;;;;;;;;;;4385696;32;68400;-59
2023/07/21 07:40:06;;;;;;;4.85;2.35;;;;;;;;;;4375730;32;60278;-58
2023/07/21 07:42:53;;;;;;;3.75;2.20;;;;;;;;;;4396898;32;69790;-59
2023/07/21 07:45:40;;;;;;;3.03;2.10;;;;;;;;;;4375786;32;69597;-59
2023/07/21 07:48:27;;;;;;;;;;;;;;;;;;4375287;32;68140;-59
2023/07/21 07:51:13;;;;;;;2.62;1.87;;;;;;;;;;4386325;32;71127;-58
2023/07/21 07:54:01;;;;;;;4.68;1.90;;;;;;;;;;4386744;32;66238;-60
2023/07/21 07:56:50;;;;;;;4.78;2.00;;;;;;;;;;4396854;32;68387;-59
2023/07/21 07:59:36;;;;;;;3.85;1.98;;;;;;;;;;4397005;32;66802;-57
2023/07/21 08:02:23;;;;;;;4.03;1.92;;;;;;;;;;4385602;32;72314;-58
2023/07/21 08:05:11;;;;;;;2.95;1.80;;;;;;;;;;4385839;32;66813;-59
2023/07/21 08:08:01;;;;;;;2.85;2.03;;;;;;;;;;4396729;32;66994;-58
2023/07/21 08:10:48;;;;;;;3.65;1.80;;;;;;;;;;4386722;32;60172;-60
2023/07/21 08:13:35;;;;;;;3.42;1.90;;;;;;;;;;4386145;32;70761;-58
2023/07/21 08:16:22;;;;;;;3.17;1.98;;;;;;;;;;4386185;32;69366;-58
2023/07/21 08:19:08;;;;;;;;;;;;;;;;;;4374556;32;67304;-59
2023/07/21 08:21:55;;;;;;;3.70;2.17;;;;;;;;;;4397259;32;59850;-58
2023/07/21 08:24:42;;;;;;;2.05;1.65;;;;;;;;;;4398086;32;69782;-59
2023/07/21 08:27:29;;;;;;;2.42;1.48;;;;;;;;;;4385849;32;69984;-63
2023/07/21 08:30:16;;;;;;;1.77;1.58;;;;;;;;;;4398853;32;67066;-59
2023/07/21 08:33:03;;;;;;;3.08;1.65;;;;;;;;;;4386107;32;71898;-58
2023/07/21 08:35:50;;;;;;;1.77;1.55;;;;;;;;;;4375379;32;64823;-59
2023/07/21 08:38:36;;;;;;;;;;;;;;;;;;4386398;32;68089;-56
2023/07/21 08:41:24;;;;;;;3.90;2.08;;;;;;;;;;4398104;32;60105;-60
2023/07/21 08:44:11;;;;;;;2.17;1.48;;;;;;;;;;4385643;32;70848;-59
2023/07/21 08:46:58;;;;;;;3.35;1.60;;;;;;;;;;4374639;32;66699;-58
2023/07/21 08:49:45;;;;;;;1.50;1.30;;;;;;;;;;4374305;32;68503;-59
2023/07/21 08:52:32;;;;;;;2.62;1.60;;;;;;;;;;4375397;32;60408;-59
2023/07/21 08:55:23;;;;;;;2.47;1.70;;;;;;;;;;4396614;32;70541;-59
2023/07/21 08:58:10;;;;;;;3.45;2.00;;;;;;;;;;4385535;32;68688;-58
2023/07/21 09:00:57;;;;;;;2.37;1.90;;;;;;;;;;4395900;32;67042;-60
2023/07/21 09:03:47;;;;;;;3.83;1.60;;;;;;;;;;4385141;32;72447;-59
2023/07/21 09:06:35;;;;;;;1.65;1.55;;;;;;;;;;4374675;32;65805;-60
2023/07/21 09:09:23;;;;;;;3.78;1.73;;;;;;;;;;4385646;32;68867;-59
2023/07/21 09:12:11;;;;;;;4.10;1.98;;;;;;;;;;4396260;32;67622;-59
2023/07/21 09:15:08;;;;;;;3.03;2.20;;;;;;;;;;4374241;32;71729;-58
2023/07/21 09:17:56;;;;;;;3.90;1.92;;;;;;;;;;4385089;32;66774;-59
2023/07/21 09:20:46;;;;;;;2.55;1.75;;;;;;;;;;4363798;32;68436;-58
2023/07/21 09:23:32;;;;;;;3.22;2.40;;;;;;;;;;4385390;32;60446;-58
2023/07/21 09:26:23;;;;;;;2.28;1.80;;;;;;;;;;4373605;32;71096;-59
2023/07/21 09:29:19;;;;;;;4.10;1.60;;;;;;;;;;4387203;32;68381;-59
2023/07/21 09:32:18;;;;;;;;;;;;;;;;;;4366910;32;68044;-58
2023/07/21 09:35:05;;;;;;;2.60;1.95;;;;;;;;;;4389198;32;59549;-60
2023/07/21 09:37:52;;;;;;;4.30;1.77;;;;;;;;;;4378042;32;69477;-59
2023/07/21 09:40:42;;;;;;;3.85;2.12;;;;;;;;;;4388237;32;68360;-59
2023/07/21 09:43:30;;;;;;;2.15;1.95;;;;;;;;;;4399065;32;67759;-58
2023/07/21 09:46:18;;;;;;;2.78;2.10;;;;;;;;;;4389774;32;71806;-59
2023/07/21 09:49:04;;;;;;;3.90;2.20;;;;;;;;;;4403056;32;65013;-58
2023/07/21 09:51:51;;;;;;;;;;;;;;;;;;4401158;32;68346;-59
2023/07/21 09:54:39;;;;;;;4.45;2.10;;;;;;;;;;4377011;32;59492;-58
2023/07/21 09:57:27;;;;;;;2.50;1.67;;;;;;;;;;4387495;32;70715;-59
2023/07/21 10:00:16;;;;;;;5.18;2.20;;;;;;;;;;4387828;32;65170;-58
2023/07/21 10:03:04;;;;;;;3.28;2.10;;;;;;;;;;4387779;32;67777;-57
2023/07/21 10:05:50;;;;;;;5.28;2.40;;;;;;;;;;4398918;32;59785;-58
2023/07/21 10:08:38;;;;;;;3.67;2.22;;;;;;;;;;4387714;32;69458;-59
2023/07/21 10:11:24;;;;;;;4.55;2.25;;;;;;;;;;4387654;32;68459;-59
2023/07/21 10:14:31;;;;;;;2.50;2.00;;;;;;;;;;4387741;32;67792;-58
2023/07/21 10:17:25;;;;;;;3.60;2.00;;;;;;;;;;4377487;32;71554;-59
2023/07/21 10:20:12;;;;;;;2.87;2.12;;;;;;;;;;4398245;32;66423;-59
2023/07/21 10:22:59;;;;;;;2.78;1.98;;;;;;;;;;4376804;32;67866;-59
2023/07/21 10:25:58;;;;;;;2.53;2.08;;;;;;;;;;4387543;32;67987;-59
2023/07/21 10:28:46;;;;;;;4.50;1.98;;;;;;;;;;4399584;32;71595;-59
2023/07/21 10:31:36;;;;;;;2.78;2.20;;;;;;;;;;4377280;32;65024;-59
2023/07/21 10:34:34;;;;;;;2.78;1.98;;;;;;;;;;4366053;32;68652;-59
2023/07/21 10:37:21;;;;;;;3.55;2.55;;;;;;;;;;4377150;32;59156;-59
2023/07/21 10:40:08;;;;;;;2.30;1.83;;;;;;;;;;4376632;32;69744;-58
2023/07/21 10:42:54;;;;;;;2.33;1.98;;;;;;;;;;4397952;32;69573;-59
2023/07/21 10:45:41;;;;;;;2.83;1.98;;;;;;;;;;4375902;32;67807;-58
2023/07/21 10:48:28;;;;;;;4.12;2.35;;;;;;;;;;4365739;32;60594;-58
2023/07/21 10:51:14;;;;;;;;;;;;;;;;;;4398187;32;69740;-59
2023/07/21 10:54:01;;;;;;;3.50;1.93;;;;;;;;;;4387611;32;68509;-59
2023/07/21 10:56:49;;;;;;;5.53;2.30;;;;;;;;;;4376547;32;68096;-59
2023/07/21 10:59:36;;;;;;;3.72;1.92;;;;;;;;;;4397740;32;70478;-59
2023/07/21 11:02:26;;;;;;;2.22;1.77;;;;;;;;;;4386566;32;65736;-58
2023/07/21 11:05:13;;;;;;;3.83;2.15;;;;;;;;;;4386272;32;68348;-59
2023/07/21 11:07:59;;;;;;;3.70;2.40;;;;;;;;;;4397857;32;59299;-60
2023/07/21 11:10:46;;;;;;;3.75;2.00;;;;;;;;;;4376200;32;71271;-58
2023/07/21 11:13:33;;;;;;;5.30;2.20;;;;;;;;;;4397897;32;65058;-59
2023/07/21 11:16:20;;;;;;;3.05;2.22;;;;;;;;;;4386987;32;67690;-60
2023/07/21 11:19:08;;;;;;;3.12;2.53;;;;;;;;;;4386315;32;60974;-59
2023/07/21 11:21:55;;;;;;;2.67;2.25;;;;;;;;;;4397505;32;70456;-58
2023/07/21 11:24:41;;;;;;;3.47;2.40;;;;;;;;;;4397368;32;69200;-59
2023/07/21 11:27:29;;;;;;;6.90;2.60;;;;;;;;;;4386229;32;68120;-58
2023/07/21 11:30:19;;;;;;;3.22;2.20;;;;;;;;;;4375945;32;70712;-59
2023/07/21 11:33:09;;;;;;;3.67;1.98;;;;;;;;;;4386030;32;65423;-60
2023/07/21 11:35:56;;;;;;;2.72;2.35;;;;;;;;;;4386509;32;68256;-59
2023/07/21 11:39:04;;;;;;;5.25;2.60;;;;;;;;;;4375818;32;67914;-60
2023/07/21 11:41:55;;;;;;;3.78;2.42;;;;;;;;;;4386071;32;72507;-59
2023/07/21 11:44:43;;;;;;;5.43;2.15;;;;;;;;;;4386058;32;66828;-60
2023/07/21 11:47:31;;;;;;;3.53;2.28;;;;;;;;;;4386500;32;68090;-60
2023/07/21 11:50:19;;;;;;;4.25;2.30;;;;;;;;;;4386819;32;59329;-59
2023/07/21 11:53:07;;;;;;;2.95;2.20;;;;;;;;;;4396631;32;70428;-58
2023/07/21 11:55:54;;;;;;;3.15;2.00;;;;;;;;;;4397064;32;69242;-59
2023/07/21 11:58:43;;;;;;;;;;;;;;;;;;4365400;32;68217;-58
2023/07/21 12:01:32;;;;;;;2.83;2.30;;;;;;;;;;4375354;32;72430;-59
2023/07/21 12:04:21;;;;;;;3.45;2.17;;;;;;;;;;4364535;32;71381;-58
2023/07/21 12:07:08;;;;;;;2.85;2.10;;;;;;;;;;4386268;32;69521;-59
2023/07/21 12:09:55;;;;;;;2.85;1.90;;;;;;;;;;4375457;32;68823;-59
2023/07/21 12:12:41;;;;;;;3.03;1.60;;;;;;;;;;4375384;32;70907;-59
2023/07/21 12:15:29;;;;;;;5.65;1.80;;;;;;;;;;4386580;32;64938;-59
2023/07/21 12:18:16;;;;;;;3.72;1.92;;;;;;;;;;4385852;32;68603;-59
2023/07/21 12:21:03;;;;;;;2.90;1.52;;;;;;;;;;4396978;32;59958;-58
2023/07/21 12:23:50;;;;;;;1.83;1.52;;;;;;;;;;4385261;32;71192;-59
2023/07/21 12:26:36;;;;;;;2.53;1.67;;;;;;;;;;4398003;32;69502;-60
2023/07/21 12:29:23;;;;;;;4.07;2.00;;;;;;;;;;4396701;32;68085;-60
2023/07/21 12:32:10;;;;;;;2.15;1.80;;;;;;;;;;4375759;32;59358;-59
2023/07/21 12:34:57;;;;;;;2.42;1.80;;;;;;;;;;4385411;32;69434;-59
2023/07/21 12:37:43;;;;;;;;;;;;;;;;;;4386338;32;69817;-58
2023/07/21 12:40:31;;;;;;;2.47;1.37;;;;;;;;;;4397063;32;67961;-58
2023/07/21 12:43:18;;;;;;;2.97;1.75;;;;;;;;;;4375335;32;72095;-59
2023/07/21 12:46:05;;;;;;;2.85;1.83;;;;;;;;;;4385379;32;66720;-59
2023/07/21 12:48:52;;;;;;;3.40;2.17;;;;;;;;;;4375227;32;67996;-58
2023/07/21 12:51:38;;;;;;;3.42;1.90;;;;;;;;;;4375292;32;60958;-58
2023/07/21 12:54:25;;;;;;;4.65;1.80;;;;;;;;;;4375211;32;70834;-59
2023/07/21 12:57:12;;;;;;;1.70;1.60;;;;;;;;;;4386255;32;66209;-59
2023/07/21 12:59:59;;;;;;;2.65;1.80;;;;;;;;;;4375178;32;68323;-59
2023/07/21 13:02:45;;;;;;;2.47;1.77;;;;;;;;;;4385730;32;59439;-58
2023/07/21 13:05:33;;;;;;;2.83;1.80;;;;;;;;;;4386438;32;70711;-58
2023/07/21 13:08:20;;;;;;;3.05;2.00;;;;;;;;;;4388613;32;68567;-58
2023/07/21 13:11:06;;;;;;;2.92;1.98;;;;;;;;;;4378343;32;66787;-57
2023/07/21 13:13:53;;;;;;;;;;;;;;;;;;4390153;32;72791;-58
2023/07/21 13:16:52;;;;;;;4.28;1.90;;;;;;;;;;3869258;36;43903;-59
2023/07/21 13:19:39;;;;;;;2.58;1.80;;;;;;;;;;4390928;32;60909;-59
2023/07/21 13:22:25;;;;;;;3.37;1.83;;;;;;;;;;4390101;32;71374;-59
2023/07/21 13:25:12;;;;;;;3.45;1.98;;;;;;;;;;4390175;32;70025;-59
2023/07/21 13:28:00;;;;;;;4.55;1.75;;;;;;;;;;4401060;32;68367;-58
2023/07/21 13:30:46;;;;;;;6.20;2.10;;;;;;;;;;4414167;32;70866;-58
2023/07/21 13:33:33;;;;;;;2.58;1.45;;;;;;;;;;4404348;32;64906;-59
2023/07/21 13:36:22;;;;;;;3.22;1.65;;;;;;;;;;4393417;32;66351;-59
2023/07/21 13:39:08;;;;;;;2.35;1.60;;;;;;;;;;4415058;32;59253;-58
2023/07/21 13:41:55;;;;;;;2.12;1.77;;;;;;;;;;4400630;32;72658;-59
2023/07/21 13:44:41;;;;;;;3.67;1.60;;;;;;;;;;4404327;32;65127;-59
2023/07/21 13:47:28;;;;;;;3.10;1.87;;;;;;;;;;4403686;32;67780;-59
2023/07/21 13:50:15;;;;;;;5.25;2.33;;;;;;;;;;4401034;32;59910;-59
2023/07/21 13:53:01;;;;;;;4.18;1.70;;;;;;;;;;4426404;32;70832;-60
2023/07/21 13:55:48;;;;;;;;;;;;;;;;;;4401987;32;69507;-58
2023/07/21 13:58:35;;;;;;;4.00;1.75;;;;;;;;;;4389270;32;67160;-59
2023/07/21 14:01:22;;;;;;;3.78;1.73;;;;;;;;;;4374493;32;72430;-58
2023/07/21 14:04:09;;;;;;;3.08;1.77;;;;;;;;;;4396493;32;66822;-59
2023/07/21 14:06:55;;;;;;;4.18;1.90;;;;;;;;;;4385828;32;69775;-59
2023/07/21 14:09:42;;;;;;;1.80;1.65;;;;;;;;;;4390427;32;67492;-59
2023/07/21 14:12:28;;;;;;;;;;;;;;;;;;4382252;32;70757;-59
2023/07/21 14:15:16;;;;;;;2.93;1.43;;;;;;;;;;4405715;32;65586;-58
2023/07/21 14:18:04;;;;;;;2.12;1.42;;;;;;;;;;4396037;32;65319;-59
2023/07/21 14:20:51;;;;;;;2.80;1.85;;;;;;;;;;4385225;32;60930;-59
2023/07/21 14:23:37;;;;;;;4.30;2.03;;;;;;;;;;4395382;32;67347;-58
2023/07/21 14:26:25;;;;;;;4.45;2.22;;;;;;;;;;4403349;32;69317;-59
2023/07/21 14:29:11;;;;;;;4.65;1.62;;;;;;;;;;4384735;32;67988;-58
2023/07/21 14:31:58;;;;;;;4.93;2.10;;;;;;;;;;4388331;32;59262;-59
2023/07/21 14:34:45;;;;;;;5.35;2.05;;;;;;;;;;4411921;32;69521;-59
2023/07/21 14:37:32;;;;;;;3.58;1.95;;;;;;;;;;4385696;32;69813;-58
2023/07/21 14:40:18;;;;;;;;;;;;;;;;;;4384777;32;67805;-58
2023/07/21 14:43:05;;;;;;;2.77;1.70;;;;;;;;;;4368896;32;71520;-58
2023/07/21 14:45:52;;;;;;;3.92;2.40;;;;;;;;;;4381370;32;64665;-58
2023/07/21 14:48:39;;;;;;;5.00;2.80;;;;;;;;;;4378513;32;67835;-58
2023/07/21 14:51:25;;;;;;;;;;;;;;;;;;4377718;32;59287;-57
2023/07/21 14:54:12;;;;;;;3.30;2.40;;;;;;;;;;4388126;32;69976;-58
2023/07/21 14:56:58;;;;;;;;;;;;;;;;;;4366791;32;66045;-57
2023/07/21 14:59:45;;;;;;;5.20;2.72;;;;;;;;;;4364736;32;66715;-57
2023/07/21 15:02:31;;;;;;;;;;;;;;;;;;4377914;32;60451;-58
2023/07/21 15:05:20;;;;;;;6.43;2.65;;;;;;;;;;4377615;32;69666;-58
2023/07/21 15:08:06;;;;;;;4.30;2.20;;;;;;;;;;4376923;32;68365;-58
2023/07/21 15:10:53;;;;;;;5.15;2.67;;;;;;;;;;4363685;32;67312;-58
2023/07/21 15:13:40;;;;;;;3.03;2.05;;;;;;;;;;4387530;32;71904;-58
2023/07/21 15:16:26;;;;;;;;;;;;;;;;;;4377299;32;65932;-58
2023/07/21 15:19:13;;;;;;;8.98;2.75;;;;;;;;;;4385380;32;66026;-57
2023/07/21 15:22:00;;;;;;;4.95;2.70;;;;;;;;;;4377341;32;66611;-58
2023/07/21 15:24:47;;;;;;;5.20;2.70;;;;;;;;;;4387569;32;71396;-58
2023/07/21 15:27:34;;;;;;;3.35;2.67;;;;;;;;;;4374259;32;67179;-58
2023/07/21 15:30:21;;;;;;;6.40;3.25;;;;;;;;;;4385046;32;68152;-58
2023/07/21 15:33:07;;;;;;;3.92;3.25;;;;;;;;;;4399759;32;59259;-58
2023/07/21 15:35:54;;;;;;;6.35;3.30;;;;;;;;;;4376794;32;70275;-57
2023/07/21 15:38:40;;;;;;;6.97;3.35;;;;;;;;;;4373562;32;67234;-57
2023/07/21 15:41:27;;;;;;;5.15;3.28;;;;;;;;;;4363686;32;67236;-57
2023/07/21 15:44:14;;;;;;;4.97;3.08;;;;;;;;;;4388817;32;60211;-56
2023/07/21 15:47:00;;;;;;;;;;;;;;;;;;4374131;32;70659;-58
2023/07/21 15:49:48;;;;;;;7.40;3.10;;;;;;;;;;4376735;32;69563;-57
2023/07/21 15:52:34;;;;;;;5.93;3.15;;;;;;;;;;4363563;32;66504;-57
2023/07/21 15:55:21;;;;;;;;;;;;;;;;;;4384567;32;72701;-57
2023/07/21 15:58:07;;;;;;;4.93;2.40;;;;;;;;;;4363260;32;66882;-57
2023/07/21 16:01:00;;;;;;;;;;;;;;;;;;4366238;32;67784;-58
2023/07/21 16:03:47;;;;;;;6.35;2.90;;;;;;;;;;4376771;32;59995;-58
2023/07/21 16:06:34;;;;;;;;;;;;;;;;;;4373669;32;70288;-58
2023/07/21 16:09:20;;;;;;;4.30;2.78;;;;;;;;;;4387191;32;66298;-59
2023/07/21 16:12:08;;;;;;;4.07;2.72;;;;;;;;;;4373216;32;68233;-57
2023/07/21 16:14:55;;;;;;;6.45;3.08;;;;;;;;;;4386826;32;60416;-58
2023/07/21 16:17:42;;;;;;;4.15;2.75;;;;;;;;;;4387209;32;70288;-58
2023/07/21 16:20:29;;;;;;;7.45;2.42;;;;;;;;;;4376192;32;69614;-58
2023/07/21 16:23:16;;;;;;;2.92;2.20;;;;;;;;;;4352552;32;67134;-58
2023/07/21 16:26:14;;;;;;;4.22;2.50;;;;;;;;;;4386715;32;71782;-57
2023/07/21 16:29:00;;;;;;;5.28;2.30;;;;;;;;;;4362831;32;67299;-58
2023/07/21 16:31:47;;;;;;;4.10;2.60;;;;;;;;;;4376332;32;67429;-58
2023/07/21 16:34:37;;;;;;;;;;;;;;;;;;4387635;32;66663;-57
2023/07/21 16:37:24;;;;;;;3.33;2.40;;;;;;;;;;4387044;32;71642;-58
2023/07/21 16:40:12;;;;;;;;;;;;;;;;;;4363147;32;66780;-57
2023/07/21 16:42:59;;;;;;;5.62;3.17;;;;;;;;;;4386848;32;66694;-58
2023/07/21 16:45:46;;;;;;;4.45;2.80;;;;;;;;;;4376210;32;58946;-58
2023/07/21 16:48:33;;;;;;;3.90;2.80;;;;;;;;;;4375949;32;69742;-58
2023/07/21 16:51:19;;;;;;;;;;;;;;;;;;4375944;32;69451;-57
2023/07/21 16:54:06;;;;;;;3.97;2.67;;;;;;;;;;4398542;32;67631;-59
2023/07/21 16:56:52;;;;;;;4.53;3.05;;;;;;;;;;4398927;32;71669;-58